Map

Track Data

SID SEASON NUMBER BASIN SUBBASIN NAME ISO_TIME NATURE LAT LON WMO_WIND WMO_PRES WMO_AGENCY TRACK_TYPE DIST2LAND LANDFALL IFLAG USA_AGENCY USA_ATCF_ID USA_LAT USA_LON USA_RECORD USA_STATUS USA_WIND USA_PRES USA_SSHS USA_R34_NE USA_R34_SE USA_R34_SW USA_R34_NW USA_R50_NE USA_R50_SE USA_R50_SW USA_R50_NW USA_R64_NE USA_R64_SE USA_R64_SW USA_R64_NW USA_POCI USA_ROCI USA_RMW USA_EYE TOKYO_LAT TOKYO_LON TOKYO_GRADE TOKYO_WIND TOKYO_PRES TOKYO_R50_DIR TOKYO_R50_LONG TOKYO_R50_SHORT TOKYO_R30_DIR TOKYO_R30_LONG TOKYO_R30_SHORT TOKYO_LAND CMA_LAT CMA_LON CMA_CAT CMA_WIND CMA_PRES HKO_LAT HKO_LON HKO_CAT HKO_WIND HKO_PRES NEWDELHI_LAT NEWDELHI_LON NEWDELHI_GRADE NEWDELHI_WIND NEWDELHI_PRES NEWDELHI_CI NEWDELHI_DP NEWDELHI_POCI REUNION_LAT REUNION_LON REUNION_TYPE REUNION_WIND REUNION_PRES REUNION_TNUM REUNION_CI REUNION_RMW REUNION_R34_NE REUNION_R34_SE REUNION_R34_SW REUNION_R34_NW REUNION_R50_NE REUNION_R50_SE REUNION_R50_SW REUNION_R50_NW REUNION_R64_NE REUNION_R64_SE REUNION_R64_SW REUNION_R64_NW BOM_LAT BOM_LON BOM_TYPE BOM_WIND BOM_PRES BOM_TNUM BOM_CI BOM_RMW BOM_R34_NE BOM_R34_SE BOM_R34_SW BOM_R34_NW BOM_R50_NE BOM_R50_SE BOM_R50_SW BOM_R50_NW BOM_R64_NE BOM_R64_SE BOM_R64_SW BOM_R64_NW BOM_ROCI BOM_POCI BOM_EYE BOM_POS_METHOD BOM_PRES_METHOD NADI_LAT NADI_LON NADI_CAT NADI_WIND NADI_PRES WELLINGTON_LAT WELLINGTON_LON WELLINGTON_WIND WELLINGTON_PRES DS824_LAT DS824_LON DS824_STAGE DS824_WIND DS824_PRES TD9636_LAT TD9636_LON TD9636_STAGE TD9636_WIND TD9636_PRES TD9635_LAT TD9635_LON TD9635_WIND TD9635_PRES TD9635_ROCI NEUMANN_LAT NEUMANN_LON NEUMANN_CLASS NEUMANN_WIND NEUMANN_PRES MLC_LAT MLC_LON MLC_CLASS MLC_WIND MLC_PRES USA_GUST BOM_GUST BOM_GUST_PER REUNION_GUST REUNION_GUST_PER USA_SEAHGT USA_SEARAD_NE USA_SEARAD_SE USA_SEARAD_SW USA_SEARAD_NW STORM_SPEED STORM_DIR
1989190N09240 1989 54 EP MM NOT_NAMED 1989-07-09 00:00:00 TS 8.90000 -119.900 25 hurdat_epa main 1889 1882 O_____________ hurdat_epa EP051989 8.90000 -119.900 TD 25 -1 18 304
1989190N09240 1989 54 EP MM NOT_NAMED 1989-07-09 03:00:00 TS 9.38522 -120.640 main 1886 1886 P_____________ EP051989 9.38522 -120.640 TD 25 -1 17 301
1989190N09240 1989 54 EP MM NOT_NAMED 1989-07-09 06:00:00 TS 9.80000 -121.400 25 hurdat_epa main 1902 1900 O_____________ hurdat_epa EP051989 9.80000 -121.400 TD 25 -1 17 295
1989190N09240 1989 54 EP MM NOT_NAMED 1989-07-09 09:00:00 TS 10.1075 -122.180 main 1932 1931 P_____________ EP051989 10.1075 -122.180 TD 25 -1 16 292
1989190N09240 1989 54 EP MM NOT_NAMED 1989-07-09 12:00:00 TS 10.4000 -122.900 25 hurdat_epa main 1958 1957 O_____________ hurdat_epa EP051989 10.4000 -122.900 TD 25 -1 15 296
1989190N09240 1989 54 EP MM NOT_NAMED 1989-07-09 15:00:00 TS 10.7549 -123.533 main 1966 1963 P_____________ EP051989 10.7549 -123.533 TD 25 -1 13 307
1989190N09240 1989 54 EP MM NOT_NAMED 1989-07-09 18:00:00 TS 11.2000 -124.000 25 hurdat_epa main 1963 1933 O_____________ hurdat_epa EP051989 11.2000 -124.000 TD 25 -1 13 325
1989190N09240 1989 54 EP MM NOT_NAMED 1989-07-09 21:00:00 TS 11.7773 -124.275 main 1932 1888 P_____________ EP051989 11.7773 -124.275 TD 27 -1 13 342
1989190N09240 1989 54 EP MM NOT_NAMED 1989-07-10 00:00:00 TS 12.4000 -124.400 30 hurdat_epa main 1888 1845 O_____________ hurdat_epa EP051989 12.4000 -124.400 TD 30 -1 12 352
1989190N09240 1989 54 EP MM NOT_NAMED 1989-07-10 03:00:00 TS 13.0024 -124.458 main 1845 1805 P_____________ EP051989 13.0024 -124.458 TD 30 -1 11 355
1989190N09240 1989 54 EP MM NOT_NAMED 1989-07-10 06:00:00 TS 13.5000 -124.500 30 hurdat_epa main 1805 1788 O_____________ hurdat_epa EP051989 13.5000 -124.500 TD 30 -1 9 347
1989190N09240 1989 54 EP MM NOT_NAMED 1989-07-10 09:00:00 TS 13.8325 -124.657 main 1796 1788 P_____________ EP051989 13.8325 -124.657 TD 30 -1 6 330
1989190N09240 1989 54 EP MM NOT_NAMED 1989-07-10 12:00:00 TS 14.0000 -124.800 30 hurdat_epa main 1788 1788 O_____________ hurdat_epa EP051989 14.0000 -124.800 TD 30 -1 3 322
1989190N09240 1989 54 EP MM NOT_NAMED 1989-07-10 15:00:00 TS 14.0450 -124.830 main 1788 1788 P_____________ EP051989 14.0450 -124.830 TD 30 -1 0 0
1989190N09240 1989 54 EP MM NOT_NAMED 1989-07-10 18:00:00 TS 14.0000 -124.800 30 hurdat_epa main 1788 1788 O_____________ hurdat_epa EP051989 14.0000 -124.800 TD 30 -1 1 136
1989190N09240 1989 54 EP MM NOT_NAMED 1989-07-10 21:00:00 TS 13.9650 -124.750 main 1780 1780 P_____________ EP051989 13.9650 -124.750 TD 30 -1 1 137
1989190N09240 1989 54 EP MM NOT_NAMED 1989-07-11 00:00:00 TS 13.9000 -124.700 30 hurdat_epa main 1788 1788 O_____________ hurdat_epa EP051989 13.9000 -124.700 TD 30 -1 2 150
1989190N09240 1989 54 EP MM NOT_NAMED 1989-07-11 03:00:00 TS 13.8075 -124.662 main 1796 1796 P_____________ EP051989 13.8075 -124.662 TD 27 -1 2 172
1989190N09240 1989 54 EP MM NOT_NAMED 1989-07-11 06:00:00 TS 13.7000 -124.700 25 hurdat_epa main 1804 1804 O_____________ hurdat_epa EP051989 13.7000 -124.700 TD 25 -1 3 221
1989190N09240 1989 54 EP MM NOT_NAMED 1989-07-11 09:00:00 TS 13.6000 -124.847 main 1819 1819 P_____________ EP051989 13.6000 -124.847 TD 25 -1 4 243
1989190N09240 1989 54 EP MM NOT_NAMED 1989-07-11 12:00:00 TS 13.5000 -125.100 25 hurdat_epa main 1850 1850 O_____________ hurdat_epa EP051989 13.5000 -125.100 TD 25 -1 6 251
1989190N09240 1989 54 EP MM NOT_NAMED 1989-07-11 15:00:00 TS 13.4075 -125.412 main 1881 1881 P_____________ EP051989 13.4075 -125.412 TD 25 -1 7 254
1989190N09240 1989 54 EP MM NOT_NAMED 1989-07-11 18:00:00 TS 13.3000 -125.800 25 hurdat_epa main 1920 1920 O_____________ hurdat_epa EP051989 13.3000 -125.800 TD 25 -1 8 253
1989190N09240 1989 54 EP MM NOT_NAMED 1989-07-11 21:00:00 TS 13.1650 -126.227 main 1959 1959 P_____________ EP051989 13.1650 -126.227 TD 25 -1 9 251
1989190N09240 1989 54 EP MM NOT_NAMED 1989-07-12 00:00:00 TS 13.0000 -126.700 25 hurdat_epa main 2014 2014 O_____________ hurdat_epa EP051989 13.0000 -126.700 TD 25 -1 10 249
1989190N09240 1989 54 EP MM NOT_NAMED 1989-07-12 03:00:00 TS 12.8074 -127.185 main 2069 2069 P_____________ EP051989 12.8074 -127.185 TD 25 -1 11 248
1989190N09240 1989 54 EP MM NOT_NAMED 1989-07-12 06:00:00 TS 12.6000 -127.700 25 hurdat_epa main 2124 2124 O_____________ hurdat_epa EP051989 12.6000 -127.700 TD 25 -1 11 248
1989190N09240 1989 54 EP MM NOT_NAMED 1989-07-12 09:00:00 TS 12.3922 -128.212 main 2179 2179 P_____________ EP051989 12.3922 -128.212 TD 25 -1 11 250
1989190N09240 1989 54 EP MM NOT_NAMED 1989-07-12 12:00:00 TS 12.2000 -128.800 25 hurdat_epa main 2243 2243 O_____________ hurdat_epa EP051989 12.2000 -128.800 TD 25 -1 13 254
1989190N09240 1989 54 EP MM NOT_NAMED 1989-07-12 15:00:00 TS 12.0272 -129.483 main 2315 2315 P_____________ EP051989 12.0272 -129.483 TD 25 -1 15 258
1989190N09240 1989 54 EP MM NOT_NAMED 1989-07-12 18:00:00 TS 11.9000 -130.300 25 hurdat_epa main 2379 2379 O_____________ hurdat_epa EP051989 11.9000 -130.300 TD 25 -1 18 264
1989190N09240 1989 54 EP MM NOT_NAMED 1989-07-12 21:00:00 TS 11.8500 -131.262 main 2449 2449 P_____________ EP051989 11.8500 -131.262 TD 25 -1 20 267
1989190N09240 1989 54 EP MM NOT_NAMED 1989-07-13 00:00:00 TS 11.8000 -132.300 25 hurdat_epa main 2531 2460 O_____________ hurdat_epa EP051989 11.8000 -132.300 TD 25 -1 20 265
1989190N09240 1989 54 EP MM NOT_NAMED 1989-07-13 03:00:00 TS 11.6647 -133.308 main 2460 2379 P_____________ EP051989 11.6647 -133.308 TD 27 -1 20 261
1989190N09240 1989 54 EP MM NOT_NAMED 1989-07-13 06:00:00 TS 11.5000 -134.300 30 hurdat_epa main 2370 2286 O_____________ hurdat_epa EP051989 11.5000 -134.300 TD 30 -1 20 261
1989190N09240 1989 54 EP MM NOT_NAMED 1989-07-13 09:00:00 TS 11.3498 -135.280 main 2281 2198 P_____________ EP051989 11.3498 -135.280 TD 30 -1 19 261
1989190N09240 1989 54 EP MM NOT_NAMED 1989-07-13 12:00:00 TS 11.2000 -136.200 30 hurdat_epa main 2198 2126 O_____________ hurdat_epa EP051989 11.2000 -136.200 TD 30 -1 17 260
1989190N09240 1989 54 EP MM NOT_NAMED 1989-07-13 15:00:00 TS 11.0503 -137.028 main 2126 2060 P_____________ EP051989 11.0503 -137.028 TD 30 -1 16 259
1989190N09240 1989 54 EP MM NOT_NAMED 1989-07-13 18:00:00 TS 10.9000 -137.800 30 hurdat_epa main 2060 O_____________ hurdat_epa EP051989 10.9000 -137.800 TD 30 -1 15 259

About IBTrACS Database

This database is a web-friendly format of International Best Track Archive for Climate Stewardship (IBTrACS), a global best track data archive curated by NOAA dating back to 1842.

Updated: 2021-10-08